Time;durP1;ratioP1;P1;durP2;ratioP2;P2;SDS_P1;SDS_P2;PMS_P1;PMS_P2;Temp;Humidity;BMP_temperature;BMP_pressure;BME280_temperature;BME280_humidity;BME280_pressure;Samples;Min_cycle;Max_cycle;Signal;HPM_P1;HPM_P2
2022/11/12 00:02:17;;;;;;;15.90;9.50;;;7.20;99.90;;;;;;5052733;28;20102;-82
2022/11/12 00:04:43;;;;;;;15.20;9.33;;;7.20;99.90;;;;;;5053931;28;20029;-82
2022/11/12 00:07:08;;;;;;;15.50;9.20;;;7.10;99.90;;;;;;5036169;28;20032;-74
2022/11/12 00:09:34;;;;;;;16.03;9.13;;;7.20;99.90;;;;;;5054016;28;20056;-81
2022/11/12 00:12:00;;;;;;;16.40;9.90;;;7.10;99.90;;;;;;5053855;28;20519;-82
2022/11/12 00:14:25;;;;;;;18.03;9.93;;;7.10;99.90;;;;;;5053766;28;20063;-81
2022/11/12 00:16:51;;;;;;;15.40;10.47;;;7.10;99.90;;;;;;5035813;28;20032;-81
2022/11/12 00:19:16;;;;;;;16.30;10.80;;;7.00;99.90;;;;;;5036151;28;20033;-82
2022/11/12 00:21:42;;;;;;;17.93;10.27;;;7.10;99.90;;;;;;5036065;28;20033;-82
2022/11/12 00:24:07;;;;;;;19.30;10.60;;;7.00;99.90;;;;;;5036195;28;20075;-75
2022/11/12 00:26:33;;;;;;;16.97;10.27;;;7.00;99.90;;;;;;5035582;28;20027;-75
2022/11/12 00:28:59;;;;;;;18.37;10.70;;;7.00;99.90;;;;;;5035681;28;20035;-75
2022/11/12 00:31:24;;;;;;;16.30;9.47;;;7.00;99.90;;;;;;5053456;28;20439;-74
2022/11/12 00:33:50;;;;;;;18.77;10.97;;;7.00;99.90;;;;;;5035646;28;20032;-74
2022/11/12 00:36:15;;;;;;;19.50;10.43;;;7.00;99.90;;;;;;5035620;28;20025;-74
2022/11/12 00:38:41;;;;;;;16.57;9.57;;;7.00;99.90;;;;;;5035834;28;20067;-74
2022/11/12 00:41:07;;;;;;;14.67;9.13;;;6.90;99.90;;;;;;5053423;28;20485;-74
2022/11/12 00:43:33;;;;;;;14.47;8.47;;;6.90;99.90;;;;;;5053254;28;20107;-74
2022/11/12 00:45:58;;;;;;;15.60;8.97;;;6.90;99.90;;;;;;5052955;28;20071;-74
2022/11/12 00:48:24;;;;;;;12.67;8.27;;;6.90;99.90;;;;;;5053191;28;20028;-81
2022/11/12 00:50:49;;;;;;;12.47;8.03;;;6.80;99.90;;;;;;5053439;28;20036;-82
2022/11/12 00:53:15;;;;;;;14.13;8.90;;;6.80;99.90;;;;;;5035428;28;20542;-82
2022/11/12 00:55:40;;;;;;;11.97;7.77;;;6.80;99.90;;;;;;5033472;28;20055;-74
2022/11/12 00:58:06;;;;;;;14.50;8.77;;;6.80;99.90;;;;;;5035386;28;20029;-81
2022/11/12 01:00:32;;;;;;;12.90;8.27;;;6.80;99.90;;;;;;5053651;28;20107;-74
2022/11/12 01:02:57;;;;;;;13.00;8.20;;;6.80;99.90;;;;;;5053186;28;20025;-75
2022/11/12 01:05:23;;;;;;;14.93;9.37;;;6.80;99.90;;;;;;5035711;28;20029;-75
2022/11/12 01:07:48;;;;;;;17.07;10.07;;;6.70;99.90;;;;;;5035538;28;20025;-74
2022/11/12 01:10:14;;;;;;;15.47;9.83;;;6.70;99.90;;;;;;5035389;28;20339;-75
2022/11/12 01:12:40;;;;;;;14.87;9.60;;;6.80;99.90;;;;;;5035556;28;20036;-74
2022/11/12 01:15:06;;;;;;;17.23;10.47;;;6.70;99.90;;;;;;5035303;28;20051;-81
2022/11/12 01:17:33;;;;;;;17.93;11.77;;;6.70;99.90;;;;;;5053106;28;20052;-81
2022/11/12 01:19:58;;;;;;;16.43;10.97;;;6.70;99.90;;;;;;5035556;28;20496;-81
2022/11/12 01:22:24;;;;;;;20.50;10.77;;;6.70;99.90;;;;;;5053062;28;20029;-81
2022/11/12 01:24:50;;;;;;;19.30;11.80;;;6.80;99.90;;;;;;5051825;28;20032;-81
2022/11/12 01:27:15;;;;;;;20.60;11.47;;;6.80;99.90;;;;;;5051893;28;20029;-81
2022/11/12 01:29:41;;;;;;;22.20;12.37;;;6.70;99.90;;;;;;5051924;28;20056;-74
2022/11/12 01:32:07;;;;;;;20.40;12.10;;;6.70;99.90;;;;;;5052932;28;20076;-82
2022/11/12 01:34:32;;;;;;;23.83;13.13;;;6.70;99.90;;;;;;5035083;28;20106;-82
2022/11/12 01:36:58;;;;;;;22.47;12.50;;;6.80;99.90;;;;;;5052845;28;20436;-81
2022/11/12 01:39:23;;;;;;;19.30;12.13;;;6.70;99.90;;;;;;5035359;28;20129;-82
2022/11/12 01:41:49;;;;;;;19.73;12.20;;;6.70;99.90;;;;;;5051716;28;20032;-82
2022/11/12 01:44:29;;;;;;;20.47;12.93;;;6.70;99.90;;;;;;5053164;28;20029;-75
2022/11/12 01:47:09;;;;;;;18.57;12.53;;;6.70;99.90;;;;;;5035112;28;20453;-74
2022/11/12 01:49:45;;;;;;;19.43;11.93;;;6.60;99.90;;;;;;5034924;28;20028;-75
2022/11/12 01:52:29;;;;;;;19.70;11.23;;;6.60;99.90;;;;;;5035140;28;20091;-75
2022/11/12 01:54:59;;;;;;;19.85;11.15;;;6.60;99.90;;;;;;5053128;28;20025;-75
2022/11/12 01:57:39;;;;;;;17.80;10.50;;;6.60;99.90;;;;;;5053123;28;20025;-74
2022/11/12 02:00:09;;;;;;;16.10;10.27;;;6.60;99.90;;;;;;5035330;28;20060;-80
2022/11/12 02:02:36;;;;;;;21.30;11.07;;;6.50;99.90;;;;;;5034779;28;20023;-81
2022/11/12 02:05:06;;;;;;;16.67;9.90;;;6.50;99.90;;;;;;5034779;28;20584;-82
2022/11/12 02:07:33;;;;;;;15.03;9.67;;;6.40;99.90;;;;;;5036942;28;20021;-75
2022/11/12 02:10:01;;;;;;;16.43;9.67;;;6.40;99.90;;;;;;5038643;28;20052;-75
2022/11/12 02:15:11;;;;;;;;;;;6.40;99.90;;;;;;5056839;28;20091;-81
2022/11/12 02:17:36;;;;;;;15.00;9.23;;;6.40;99.90;;;;;;5056175;28;19905;-81
2022/11/12 02:20:02;;;;;;;18.17;11.00;;;6.40;99.90;;;;;;5056124;28;20029;-81
2022/11/12 02:22:28;;;;;;;17.07;10.10;;;6.30;99.90;;;;;;5056029;28;20041;-81
2022/11/12 02:24:54;;;;;;;17.57;10.70;;;6.30;99.90;;;;;;5055137;28;20527;-81
2022/11/12 02:27:20;;;;;;;19.27;10.90;;;6.20;99.90;;;;;;5056066;28;20107;-81
2022/11/12 02:29:46;;;;;;;17.97;11.33;;;6.30;99.90;;;;;;5056056;28;20496;-81
2022/11/12 02:32:12;;;;;;;18.63;11.60;;;6.30;99.90;;;;;;5055864;28;20048;-82
2022/11/12 02:34:38;;;;;;;19.40;12.17;;;6.30;99.90;;;;;;5038103;28;20036;-81
2022/11/12 02:37:05;;;;;;;20.77;11.83;;;6.30;99.90;;;;;;5038202;28;20025;-81
2022/11/12 02:39:31;;;;;;;21.70;12.20;;;6.30;99.90;;;;;;5055769;28;20396;-81
2022/11/12 02:41:57;;;;;;;20.83;12.57;;;6.20;99.90;;;;;;5055720;28;20135;-80
2022/11/12 02:44:22;;;;;;;20.27;11.77;;;6.20;99.90;;;;;;5055697;28;20025;-81
2022/11/12 02:46:48;;;;;;;20.67;12.27;;;6.20;99.90;;;;;;5054536;28;20037;-81
2022/11/12 02:49:13;;;;;;;19.23;12.70;;;6.10;99.90;;;;;;5037717;28;20053;-81
2022/11/12 02:51:39;;;;;;;22.80;13.40;;;6.10;99.90;;;;;;5054466;28;20049;-81
2022/11/12 02:54:05;;;;;;;23.77;14.43;;;6.10;99.90;;;;;;5054408;28;20083;-82
2022/11/12 02:56:31;;;;;;;23.47;13.33;;;6.10;99.90;;;;;;5054391;28;20051;-74
2022/11/12 02:58:56;;;;;;;23.13;13.37;;;6.10;99.90;;;;;;5055564;28;20033;-74
2022/11/12 03:01:22;;;;;;;20.63;13.10;;;6.10;99.90;;;;;;5054334;28;20037;-74
2022/11/12 03:03:48;;;;;;;21.87;13.17;;;6.10;99.90;;;;;;5055560;28;20037;-74
2022/11/12 03:06:13;;;;;;;20.60;12.53;;;6.10;99.90;;;;;;5036848;28;20028;-74
2022/11/12 03:08:39;;;;;;;21.77;12.93;;;6.10;99.90;;;;;;5045098;28;20158;-81
2022/11/12 03:11:14;;;;;;;20.43;13.10;;;6.10;99.90;;;;;;5055129;28;20074;-82
2022/11/12 03:13:40;;;;;;;19.83;12.77;;;6.10;99.90;;;;;;5036780;28;20093;-81
2022/11/12 03:16:05;;;;;;;25.60;13.20;;;6.10;99.90;;;;;;5036971;28;20553;-81
2022/11/12 03:18:31;;;;;;;22.77;13.03;;;6.00;99.90;;;;;;5053912;28;20021;-81
2022/11/12 03:20:57;;;;;;;24.67;13.50;;;6.00;99.90;;;;;;5020714;28;20109;-81
2022/11/12 03:23:24;;;;;;;19.37;12.07;;;6.00;99.90;;;;;;5054810;28;20104;-81
2022/11/12 03:25:50;;;;;;;20.00;12.40;;;6.00;99.90;;;;;;5036833;28;20427;-81
2022/11/12 03:28:15;;;;;;;20.27;11.40;;;5.90;99.90;;;;;;5036991;28;20055;-75
2022/11/12 03:30:42;;;;;;;17.23;10.27;;;6.00;99.90;;;;;;5036944;28;20100;-81
2022/11/12 03:33:10;;;;;;;15.43;10.23;;;5.90;99.90;;;;;;5054353;28;20481;-81
2022/11/12 03:35:37;;;;;;;16.13;10.80;;;5.90;99.90;;;;;;5054572;28;20496;-81
2022/11/12 03:38:04;;;;;;;15.73;11.13;;;5.90;99.90;;;;;;5054614;28;20104;-81
2022/11/12 03:40:30;;;;;;;16.07;10.50;;;5.90;99.90;;;;;;5054517;28;20457;-81
2022/11/12 03:42:56;;;;;;;18.77;11.03;;;5.90;99.90;;;;;;5003723;28;20124;-81
2022/11/12 03:45:24;;;;;;;16.97;10.80;;;5.90;99.90;;;;;;5036346;28;20120;-81
2022/11/12 03:47:52;;;;;;;18.23;10.43;;;5.80;99.90;;;;;;5036542;28;20025;-75
2022/11/12 03:50:19;;;;;;;17.00;10.87;;;5.80;99.90;;;;;;5020162;28;20059;-75
2022/11/12 03:52:50;;;;;;;16.50;10.60;;;5.80;99.90;;;;;;5054276;28;20143;-75
2022/11/12 03:55:17;;;;;;;19.43;10.97;;;5.80;99.90;;;;;;5054110;28;20025;-74
2022/11/12 03:57:43;;;;;;;14.77;10.10;;;5.80;99.90;;;;;;5054280;28;20025;-74
2022/11/12 04:00:11;;;;;;;16.23;9.83;;;5.70;99.90;;;;;;5054040;28;20059;-74
2022/11/12 04:02:37;;;;;;;13.50;10.00;;;5.70;99.90;;;;;;5054113;28;20028;-74
2022/11/12 04:10:34;;;;;;;16.57;10.50;;;5.60;99.90;;;;;;5039134;28;20090;-75
2022/11/12 04:15:44;;;;;;;12.30;8.38;;;5.60;99.90;;;;;;5039046;28;20043;-75
2022/11/12 04:23:38;;;;;;;;;;;5.50;99.90;;;;;;5075276;28;20043;-74
2022/11/12 04:26:22;;;;;;;14.10;8.93;;;5.50;99.90;;;;;;5073576;28;19913;-75
2022/11/12 04:31:32;;;;;;;14.80;9.90;;;5.50;99.90;;;;;;5058571;28;20174;-75
2022/11/12 04:34:27;;;;;;;16.20;10.40;;;5.40;99.90;;;;;;5055747;28;20107;-75
2022/11/12 04:36:43;;;;;;;16.67;10.33;;;5.50;99.90;;;;;;5073188;28;20044;-82
2022/11/12 04:39:09;;;;;;;17.83;10.70;;;5.50;99.90;;;;;;5055536;28;20044;-75
2022/11/12 04:47:02;;;;;;;17.42;10.73;;;5.40;99.90;;;;;;5058658;28;20230;-74
2022/11/12 04:49:27;;;;;;;17.37;10.47;;;5.40;99.90;;;;;;5038962;28;20125;-81
2022/11/12 04:52:05;;;;;;;17.40;10.63;;;5.40;99.90;;;;;;5073444;28;20044;-81
2022/11/12 04:54:31;;;;;;;15.27;9.83;;;5.40;99.90;;;;;;5040295;28;20514;-81
2022/11/12 04:56:57;;;;;;;14.93;9.90;;;5.40;99.90;;;;;;5055527;28;20111;-81
2022/11/12 04:59:23;;;;;;;16.83;11.47;;;5.50;99.90;;;;;;5039265;28;20162;-81
2022/11/12 05:01:49;;;;;;;18.80;12.33;;;5.50;99.90;;;;;;5073092;28;20029;-82
2022/11/12 05:04:14;;;;;;;17.20;11.80;;;5.40;99.90;;;;;;5073332;28;20021;-82
2022/11/12 05:06:52;;;;;;;18.10;11.10;;;5.40;99.90;;;;;;5038797;28;20366;-83
2022/11/12 05:09:26;;;;;;;16.83;11.07;;;5.40;99.90;;;;;;5057117;28;20031;-83
2022/11/12 05:11:54;;;;;;;17.10;11.20;;;5.40;99.90;;;;;;5073239;28;20027;-83
2022/11/12 05:14:20;;;;;;;17.20;11.87;;;5.40;99.90;;;;;;5050066;28;20099;-82
2022/11/12 05:16:46;;;;;;;17.83;12.07;;;5.40;99.90;;;;;;5050220;28;20374;-82
2022/11/12 05:19:12;;;;;;;19.93;12.23;;;5.40;99.90;;;;;;5052046;28;20025;-82
2022/11/12 05:24:23;;;;;;;19.60;12.60;;;5.40;99.90;;;;;;5038108;28;20098;-82
2022/11/12 05:26:48;;;;;;;19.80;13.47;;;5.40;99.90;;;;;;5052873;28;20108;-82
2022/11/12 05:29:14;;;;;;;19.13;12.37;;;5.40;99.90;;;;;;5017853;28;20032;-83
2022/11/12 05:31:39;;;;;;;18.13;11.90;;;5.40;99.90;;;;;;5035033;28;20037;-82
2022/11/12 05:34:05;;;;;;;19.13;12.43;;;5.40;99.90;;;;;;5053032;28;20032;-82
2022/11/12 05:36:31;;;;;;;20.17;12.60;;;5.40;99.90;;;;;;5035156;28;20087;-82
2022/11/12 05:38:56;;;;;;;20.80;13.00;;;5.40;99.90;;;;;;5035159;28;20029;-83
2022/11/12 05:41:22;;;;;;;21.60;12.00;;;5.30;99.90;;;;;;5053289;28;20036;-82
2022/11/12 05:43:48;;;;;;;17.27;11.20;;;5.30;99.90;;;;;;5055469;28;20025;-82
2022/11/12 05:46:13;;;;;;;20.63;11.30;;;5.30;99.90;;;;;;5056559;28;20033;-83
2022/11/12 05:48:39;;;;;;;18.03;11.27;;;5.30;99.90;;;;;;5055416;28;20024;-82
2022/11/12 05:51:04;;;;;;;16.67;10.80;;;5.30;99.90;;;;;;5022577;28;20102;-82
2022/11/12 05:53:30;;;;;;;16.10;10.97;;;5.30;99.90;;;;;;5038825;28;20105;-83
2022/11/12 05:56:05;;;;;;;16.60;10.63;;;5.20;99.90;;;;;;5022284;28;20029;-82
2022/11/12 05:58:31;;;;;;;19.03;11.87;;;5.20;99.90;;;;;;5056626;28;20079;-83
2022/11/12 06:00:58;;;;;;;17.77;11.23;;;5.10;99.90;;;;;;5056448;28;20036;-82
2022/11/12 06:03:24;;;;;;;15.77;10.17;;;5.20;99.90;;;;;;5038926;28;20435;-83
2022/11/12 06:05:51;;;;;;;16.30;10.13;;;5.20;99.90;;;;;;5056404;28;20032;-83
2022/11/12 06:08:16;;;;;;;15.50;9.57;;;5.20;99.90;;;;;;5070764;28;20503;-82
2022/11/12 06:10:46;;;;;;;16.20;10.00;;;5.10;99.90;;;;;;5058673;28;20028;-83
2022/11/12 06:13:12;;;;;;;18.17;11.23;;;5.10;99.90;;;;;;5076279;28;20017;-82
2022/11/12 06:15:37;;;;;;;17.13;10.63;;;5.10;99.90;;;;;;5076124;28;20256;-81
2022/11/12 06:18:03;;;;;;;17.70;10.13;;;5.10;99.90;;;;;;5041421;28;20020;-82
2022/11/12 06:20:28;;;;;;;15.03;9.83;;;5.10;99.90;;;;;;5025273;28;20384;-83
2022/11/12 06:22:56;;;;;;;15.07;9.87;;;5.10;99.90;;;;;;5033472;28;20028;-83
2022/11/12 06:25:22;;;;;;;15.33;10.30;;;5.10;99.90;;;;;;5075241;28;20028;-83
2022/11/12 06:27:47;;;;;;;16.63;9.30;;;5.10;99.90;;;;;;5076035;28;20381;-83
2022/11/12 06:30:14;;;;;;;16.93;9.40;;;5.10;99.90;;;;;;5025065;28;20025;-84
2022/11/12 06:32:40;;;;;;;14.07;9.13;;;5.10;99.90;;;;;;5034297;28;20512;-84
2022/11/12 06:35:06;;;;;;;13.83;9.50;;;5.10;99.90;;;;;;5021373;28;20025;-83
2022/11/12 06:37:31;;;;;;;14.93;9.63;;;5.20;99.90;;;;;;5027253;28;20140;-83
2022/11/12 06:39:57;;;;;;;14.43;9.70;;;5.20;99.90;;;;;;5049499;28;20489;-83
2022/11/12 06:42:23;;;;;;;16.57;10.60;;;5.20;99.90;;;;;;5023759;28;20030;-83
2022/11/12 06:44:48;;;;;;;15.37;8.90;;;5.20;99.90;;;;;;5000644;28;20048;-83
2022/11/12 06:47:14;;;;;;;15.73;10.00;;;5.20;99.90;;;;;;5017182;28;20029;-83
2022/11/12 06:49:39;;;;;;;14.77;9.40;;;5.20;99.90;;;;;;5017958;28;20422;-83
2022/11/12 06:52:05;;;;;;;13.50;9.43;;;5.20;99.90;;;;;;5053906;28;20020;-83
2022/11/12 06:54:31;;;;;;;14.63;10.17;;;5.20;99.90;;;;;;5036098;28;20048;-83
2022/11/12 06:56:56;;;;;;;16.03;9.33;;;5.20;99.90;;;;;;5052220;28;20064;-84
2022/11/12 06:59:22;;;;;;;16.53;9.80;;;5.20;99.90;;;;;;5053245;28;20025;-83
2022/11/12 07:01:48;;;;;;;16.80;10.00;;;5.20;99.90;;;;;;5053891;28;20033;-83
2022/11/12 07:04:13;;;;;;;17.67;9.87;;;5.20;99.90;;;;;;5055130;28;20095;-83
2022/11/12 07:06:39;;;;;;;15.70;10.43;;;5.30;99.90;;;;;;5053929;28;20021;-83
2022/11/12 07:09:05;;;;;;;15.93;10.50;;;5.30;99.90;;;;;;5054066;28;20120;-84
2022/11/12 07:11:31;;;;;;;17.63;10.73;;;5.30;99.90;;;;;;5055153;28;20091;-84
2022/11/12 07:13:56;;;;;;;16.07;8.93;;;5.30;99.90;;;;;;5037261;28;20025;-84
2022/11/12 07:16:22;;;;;;;16.07;9.70;;;5.20;99.90;;;;;;5037469;28;20036;-84
2022/11/12 07:18:48;;;;;;;17.10;10.43;;;5.30;99.90;;;;;;5054972;28;20428;-84
2022/11/12 07:21:17;;;;;;;18.40;10.37;;;5.40;99.90;;;;;;5020610;28;20162;-84
2022/11/12 07:23:43;;;;;;;17.90;10.17;;;5.40;99.90;;;;;;5037074;28;20032;-84
2022/11/12 07:26:15;;;;;;;15.73;9.93;;;5.40;99.90;;;;;;5054883;28;20029;-85
2022/11/12 07:28:41;;;;;;;13.20;9.00;;;5.40;99.90;;;;;;5054989;28;20103;-84
2022/11/12 07:31:10;;;;;;;16.97;9.40;;;5.40;99.90;;;;;;5037199;28;20431;-84
2022/11/12 07:33:35;;;;;;;15.20;9.00;;;5.50;99.90;;;;;;5055614;28;20040;-83
2022/11/12 07:36:04;;;;;;;14.37;9.30;;;5.50;99.90;;;;;;5074529;28;20024;-84
2022/11/12 07:38:32;;;;;;;17.00;9.83;;;5.50;99.90;;;;;;5073302;28;20021;-82
2022/11/12 07:41:06;;;;;;;13.77;9.10;;;5.50;99.90;;;;;;5055148;28;20124;-83
2022/11/12 07:43:32;;;;;;;;;;;5.50;99.90;;;;;;5074084;28;20052;-83
2022/11/12 07:45:59;;;;;;;13.57;8.30;;;5.60;99.90;;;;;;5073481;28;19916;-82
2022/11/12 07:48:25;;;;;;;13.43;8.00;;;5.60;99.90;;;;;;5039294;28;20045;-82
2022/11/12 07:50:51;;;;;;;14.70;8.73;;;5.60;99.90;;;;;;5073887;28;20023;-82
2022/11/12 07:53:17;;;;;;;14.40;9.23;;;5.70;99.90;;;;;;5056353;28;20116;-83
2022/11/12 07:55:42;;;;;;;14.80;9.23;;;5.60;99.90;;;;;;5057194;28;20033;-82
2022/11/12 07:58:08;;;;;;;14.20;8.30;;;5.70;99.90;;;;;;5057176;28;20120;-83
2022/11/12 08:00:34;;;;;;;13.97;8.80;;;5.80;99.90;;;;;;5057180;28;20029;-83
2022/11/12 08:03:02;;;;;;;15.97;9.17;;;5.70;99.90;;;;;;5072824;28;20491;-83
2022/11/12 08:05:27;;;;;;;19.40;11.17;;;5.70;99.90;;;;;;5073505;28;20037;-82
2022/11/12 08:07:56;;;;;;;15.77;10.20;;;5.80;99.90;;;;;;5056090;28;20021;-83
2022/11/12 08:10:22;;;;;;;18.83;10.57;;;5.90;99.90;;;;;;5055916;28;20024;-83
2022/11/12 08:12:47;;;;;;;15.87;10.40;;;6.00;99.90;;;;;;5056102;28;20024;-83
2022/11/12 08:15:13;;;;;;;17.00;9.77;;;6.00;99.90;;;;;;5039368;28;20070;-83
2022/11/12 08:17:39;;;;;;;16.33;10.33;;;6.00;99.90;;;;;;5073818;28;20112;-83
2022/11/12 08:20:05;;;;;;;18.37;9.63;;;6.10;99.90;;;;;;5056141;28;20074;-83
2022/11/12 08:22:32;;;;;;;16.87;9.50;;;6.20;99.90;;;;;;5055826;28;20067;-83
2022/11/12 08:24:57;;;;;;;15.97;9.80;;;6.30;99.90;;;;;;5073807;28;20020;-83
2022/11/12 08:27:23;;;;;;;14.20;9.20;;;6.30;99.90;;;;;;5039160;28;20516;-83
2022/11/12 08:29:48;;;;;;;15.20;8.93;;;6.40;99.90;;;;;;5055630;28;20116;-83
2022/11/12 08:32:14;;;;;;;16.23;9.87;;;6.50;99.90;;;;;;5052000;28;20520;-83
2022/11/12 08:34:42;;;;;;;15.77;9.50;;;6.50;99.90;;;;;;5053547;28;20029;-83
2022/11/12 08:37:08;;;;;;;17.57;9.57;;;6.60;99.90;;;;;;5036024;28;20412;-83
2022/11/12 08:39:33;;;;;;;13.77;9.00;;;6.60;99.90;;;;;;5052156;28;20033;-83
2022/11/12 08:41:59;;;;;;;16.80;9.43;;;6.80;99.90;;;;;;5035809;28;20029;-83
2022/11/12 08:44:25;;;;;;;15.80;9.43;;;6.80;99.90;;;;;;5052107;28;20139;-82
2022/11/12 08:46:50;;;;;;;13.33;9.00;;;6.90;99.90;;;;;;5035378;28;20029;-83
2022/11/12 08:49:16;;;;;;;14.40;9.13;;;7.00;99.90;;;;;;5052234;28;20029;-83
2022/11/12 08:51:42;;;;;;;16.13;9.07;;;7.00;99.90;;;;;;5053221;28;20033;-83
2022/11/12 08:54:07;;;;;;;14.13;9.10;;;7.10;99.90;;;;;;5051988;28;20036;-83
2022/11/12 08:56:33;;;;;;;14.83;9.17;;;7.20;99.90;;;;;;5053155;28;20102;-83
2022/11/12 08:58:59;;;;;;;14.37;10.50;;;7.30;99.90;;;;;;5052135;28;20082;-83
2022/11/12 09:01:24;;;;;;;14.87;8.93;;;7.40;99.90;;;;;;5051918;28;20033;-83
2022/11/12 09:03:50;;;;;;;14.50;8.83;;;7.50;99.90;;;;;;5051785;28;20029;-83
2022/11/12 09:06:16;;;;;;;13.23;8.73;;;7.60;99.90;;;;;;5051951;28;20044;-83
2022/11/12 09:08:41;;;;;;;13.47;9.10;;;7.70;99.90;;;;;;5035226;28;20030;-83
2022/11/12 09:11:07;;;;;;;13.93;9.40;;;7.70;99.90;;;;;;5053146;28;20469;-83
2022/11/12 09:13:33;;;;;;;17.00;9.23;;;7.90;99.90;;;;;;5051920;28;20029;-83
2022/11/12 09:16:01;;;;;;;13.63;7.90;;;7.90;99.90;;;;;;5053004;28;20029;-83
2022/11/12 09:18:27;;;;;;;12.40;7.80;;;8.10;99.90;;;;;;5057004;28;20029;-83
2022/11/12 09:20:52;;;;;;;13.07;8.63;;;8.20;99.90;;;;;;5056009;28;20444;-83
2022/11/12 09:23:18;;;;;;;14.17;7.37;;;8.40;99.90;;;;;;5039299;28;20037;-83
2022/11/12 09:25:44;;;;;;;11.20;7.17;;;8.60;99.90;;;;;;5039445;28;20033;-83
2022/11/12 09:28:14;;;;;;;10.17;6.13;;;9.00;99.90;;;;;;5057143;28;20025;-84
2022/11/12 09:30:45;;;;;;;12.40;6.20;;;9.40;99.90;;;;;;5056724;28;20469;-84
2022/11/12 09:33:13;;;;;;;10.93;5.70;;;9.80;99.90;;;;;;5073722;28;20131;-84
2022/11/12 09:35:38;;;;;;;12.07;4.78;;;10.40;99.90;;;;;;5058969;28;20074;-83
2022/11/12 09:38:04;;;;;;;9.32;5.45;;;11.00;99.90;;;;;;5058967;28;20524;-84
2022/11/12 09:40:52;;;;;;;8.98;4.15;;;11.70;99.90;;;;;;5058915;28;20078;-82
2022/11/12 09:43:24;;;;;;;7.05;3.22;;;12.70;99.90;;;;;;5076800;28;20034;-82
2022/11/12 09:45:52;;;;;;;9.20;4.07;;;13.60;99.90;;;;;;5076745;28;20036;-82
2022/11/12 09:48:27;;;;;;;5.85;3.17;;;14.50;99.90;;;;;;5058709;28;20021;-82
2022/11/12 09:50:59;;;;;;;6.90;3.67;;;15.20;99.90;;;;;;5076704;28;20427;-82
2022/11/12 09:53:52;;;;;;;6.80;3.03;;;16.00;99.90;;;;;;5076557;28;20494;-82
2022/11/12 09:56:20;;;;;;;5.47;3.30;;;16.70;99.90;;;;;;5076435;28;20638;-82
2022/11/12 09:58:46;;;;;;;7.35;2.95;;;17.50;99.90;;;;;;5058557;28;20054;-83
2022/11/12 10:01:33;;;;;;;5.32;2.83;;;18.10;99.90;;;;;;5058538;28;20373;-83
2022/11/12 10:04:11;;;;;;;4.82;2.50;;;18.80;98.60;;;;;;5076363;28;20025;-82
2022/11/12 10:07:20;;;;;;;5.72;3.08;;;19.50;96.40;;;;;;5076365;28;20027;-83
2022/11/12 10:09:51;;;;;;;5.65;2.60;;;20.20;93.10;;;;;;5027271;28;20495;-83
2022/11/12 10:12:36;;;;;;;6.45;3.15;;;20.80;91.70;;;;;;5058304;28;20070;-82
2022/11/12 10:18:35;;;;;;;6.30;3.08;;;21.60;82.10;;;;;;5076299;28;20039;-83
2022/11/12 10:21:07;;;;;;;6.07;2.60;;;21.90;79.20;;;;;;5058170;28;20025;-83
2022/11/12 10:23:50;;;;;;;5.60;2.80;;;22.00;78.80;;;;;;5076171;28;20538;-83
2022/11/12 10:26:19;;;;;;;6.47;2.90;;;22.10;75.40;;;;;;5075908;28;20079;-82
2022/11/12 10:28:46;;;;;;;6.82;2.72;;;22.10;74.10;;;;;;5057703;28;20380;-83
2022/11/12 10:31:15;;;;;;;10.20;3.20;;;22.10;71.90;;;;;;5075731;28;20020;-82
2022/11/12 10:33:41;;;;;;;6.57;2.80;;;21.90;69.80;;;;;;5075680;28;20093;-83
2022/11/12 10:36:32;;;;;;;7.45;2.90;;;21.80;68.60;;;;;;5075995;28;20036;-83
2022/11/12 10:38:58;;;;;;;5.63;3.03;;;21.70;66.80;;;;;;5075623;28;20092;-84
2022/11/12 10:41:33;;;;;;;9.85;3.72;;;21.80;67.00;;;;;;5057993;28;20132;-83
2022/11/12 10:44:00;;;;;;;5.75;2.85;;;21.90;65.30;;;;;;5075805;28;20074;-83
2022/11/12 10:46:27;;;;;;;7.00;3.13;;;22.00;65.30;;;;;;5075569;28;20089;-82
2022/11/12 10:49:04;;;;;;;5.65;2.72;;;22.20;64.30;;;;;;5075801;28;20345;-83
2022/11/12 10:51:32;;;;;;;7.07;2.92;;;22.50;63.10;;;;;;5075540;28;20419;-83
2022/11/12 10:54:17;;;;;;;5.57;3.13;;;22.80;62.50;;;;;;5075506;28;20021;-83
2022/11/12 10:56:43;;;;;;;5.03;2.75;;;23.10;61.80;;;;;;5075462;28;20477;-83
2022/11/12 10:59:17;;;;;;;6.95;3.40;;;23.40;61.20;;;;;;5075467;28;20074;-83
2022/11/12 11:01:44;;;;;;;5.72;3.03;;;23.60;60.20;;;;;;5076855;28;20051;-84
2022/11/12 11:04:26;;;;;;;6.07;3.13;;;23.80;59.80;;;;;;5077983;28;20016;-83
2022/11/12 11:07:14;;;;;;;5.88;3.20;;;24.00;58.30;;;;;;5077556;28;20032;-83
2022/11/12 11:09:51;;;;;;;6.72;3.25;;;24.20;58.00;;;;;;5077891;28;20016;-85
2022/11/12 11:12:29;;;;;;;5.60;2.95;;;24.40;57.30;;;;;;5077964;28;20028;-83
2022/11/12 11:15:17;;;;;;;8.25;3.65;;;24.40;57.00;;;;;;5077726;28;20460;-82
2022/11/12 11:17:42;;;;;;;5.15;2.90;;;24.40;56.00;;;;;;5059900;28;20028;-85
2022/11/12 11:20:22;;;;;;;5.30;2.80;;;24.40;56.30;;;;;;5077782;28;20032;-83
2022/11/12 11:23:13;;;;;;;6.30;3.10;;;24.50;55.10;;;;;;5077706;28;20027;-82
2022/11/12 11:25:41;;;;;;;6.72;3.03;;;24.50;54.60;;;;;;5076952;28;20036;-83
2022/11/12 11:28:22;;;;;;;5.32;2.80;;;24.50;54.70;;;;;;5058853;28;20017;-82
2022/11/12 11:31:05;;;;;;;5.70;3.25;;;24.30;54.10;;;;;;5076010;28;20491;-83
2022/11/12 11:33:43;;;;;;;5.57;2.85;;;24.20;54.00;;;;;;5075999;28;20040;-84
2022/11/12 11:36:27;;;;;;;5.10;2.88;;;24.20;54.10;;;;;;5076385;28;20037;-84
2022/11/12 11:39:11;;;;;;;7.88;3.22;;;24.40;54.00;;;;;;5075757;28;20039;-84
2022/11/12 11:41:46;;;;;;;4.93;2.65;;;24.60;53.70;;;;;;5075422;28;20028;-84
2022/11/12 11:44:46;;;;;;;6.45;3.33;;;24.90;53.40;;;;;;5075591;28;20028;-85
2022/11/12 11:47:44;;;;;;;5.50;2.72;;;25.20;52.40;;;;;;5076090;28;20040;-85
2022/11/12 11:50:25;;;;;;;5.70;2.67;;;25.60;52.10;;;;;;5076355;28;20025;-84
2022/11/12 11:53:22;;;;;;;4.70;2.35;;;25.90;51.70;;;;;;5076578;28;20022;-85
2022/11/12 11:55:59;;;;;;;6.63;3.00;;;26.20;50.80;;;;;;5077310;28;20476;-85
2022/11/12 11:58:34;;;;;;;5.88;2.88;;;26.50;50.70;;;;;;5058450;28;20605;-83
2022/11/12 12:01:33;;;;;;;5.00;2.40;;;26.70;50.60;;;;;;5076978;28;20380;-84
2022/11/12 12:04:26;;;;;;;3.90;2.33;;;26.90;49.30;;;;;;5026447;28;20042;-84
2022/11/12 12:07:29;;;;;;;5.53;2.30;;;27.20;48.90;;;;;;5074463;28;20488;-83
2022/11/12 12:10:21;;;;;;;5.72;2.45;;;27.40;48.60;;;;;;5074179;28;20032;-84
2022/11/12 12:12:50;;;;;;;4.45;2.60;;;27.60;48.80;;;;;;5074108;28;20024;-84
2022/11/12 12:15:21;;;;;;;4.50;2.38;;;27.80;49.20;;;;;;5073903;28;20108;-84
2022/11/12 12:18:11;;;;;;;4.65;2.60;;;28.00;48.80;;;;;;5074078;28;20091;-85
2022/11/12 12:20:39;;;;;;;4.28;2.53;;;28.20;47.80;;;;;;5074090;28;20021;-85
2022/11/12 12:23:33;;;;;;;4.13;2.10;;;28.40;47.90;;;;;;5055876;28;20028;-85
2022/11/12 12:26:01;;;;;;;4.80;2.60;;;28.60;47.30;;;;;;5062788;28;20048;-83
2022/11/12 12:28:41;;;;;;;4.30;2.47;;;28.70;47.40;;;;;;5055821;28;20107;-82
2022/11/12 12:31:15;;;;;;;5.15;2.33;;;28.90;46.50;;;;;;5073456;28;20445;-82
2022/11/12 12:33:40;;;;;;;;;;;29.20;46.20;;;;;;5073641;28;20037;-82
2022/11/12 12:36:16;;;;;;;4.03;2.20;;;29.40;46.50;;;;;;5055511;28;20428;-83
2022/11/12 12:38:48;;;;;;;5.50;2.70;;;29.70;46.60;;;;;;5055513;28;20477;-82
2022/11/12 12:41:28;;;;;;;4.55;2.78;;;29.90;45.90;;;;;;5055519;28;20395;-82
2022/11/12 12:44:12;;;;;;;4.18;2.38;;;30.10;45.30;;;;;;5073368;28;20017;-83
2022/11/12 12:46:56;;;;;;;4.32;2.28;;;30.30;44.10;;;;;;5073382;28;20469;-82
2022/11/12 12:49:31;;;;;;;5.07;2.38;;;30.50;44.10;;;;;;5073431;28;20048;-82
2022/11/12 12:51:58;;;;;;;4.15;2.45;;;30.60;43.60;;;;;;5073204;28;20028;-82
2022/11/12 12:54:50;;;;;;;8.77;2.60;;;30.70;43.40;;;;;;5073494;28;20028;-82
2022/11/12 12:57:31;;;;;;;3.83;2.55;;;30.80;42.60;;;;;;5055368;28;20025;-82
2022/11/12 13:00:35;;;;;;;4.75;2.47;;;30.90;42.60;;;;;;5073312;28;20381;-81
2022/11/12 13:03:01;;;;;;;4.75;2.38;;;31.10;42.10;;;;;;5071042;28;20496;-82
2022/11/12 13:05:33;;;;;;;8.40;2.53;;;31.20;42.40;;;;;;5073172;28;20029;-81
2022/11/12 13:08:21;;;;;;;4.47;2.20;;;31.40;41.80;;;;;;5073361;28;20028;-82
2022/11/12 13:10:51;;;;;;;4.07;1.90;;;31.70;41.40;;;;;;5073144;28;20028;-81
2022/11/12 13:13:22;;;;;;;5.40;2.40;;;31.80;41.00;;;;;;5055115;28;20485;-81
2022/11/12 13:15:53;;;;;;;3.75;2.50;;;31.90;40.80;;;;;;5045496;28;20052;-82
2022/11/12 13:18:38;;;;;;;4.32;2.38;;;32.00;40.40;;;;;;5014818;28;20389;-82
2022/11/12 13:21:17;;;;;;;4.65;2.78;;;32.20;39.90;;;;;;5038661;28;20021;-84
2022/11/12 13:24:05;;;;;;;5.10;2.50;;;32.30;39.90;;;;;;5052429;28;20052;-81
2022/11/12 13:26:51;;;;;;;3.70;2.60;;;32.40;39.90;;;;;;5040831;28;20465;-83
2022/11/12 13:29:26;;;;;;;5.65;2.50;;;32.50;39.20;;;;;;5051342;28;20078;-84